Time;durP1;ratioP1;P1;durP2;ratioP2;P2;SDS_P1;SDS_P2;PMS_P1;PMS_P2;Temp;Humidity;BMP_temperature;BMP_pressure;BME280_temperature;BME280_humidity;BME280_pressure;Samples;Min_cycle;Max_cycle;Signal;HPM_P1;HPM_P2
2022/09/20 00:01:05;;;;;;;8.30;1.90;;;;;;;;;;6156509;23;20089;-71
2022/09/20 00:03:31;;;;;;;4.07;2.03;;;;;;;;;;6157770;23;20060;-71
2022/09/20 00:05:59;;;;;;;10.15;1.80;;;;;;;;;;6158068;23;20030;-71
2022/09/20 00:08:25;;;;;;;5.03;1.35;;;;;;;;;;6158098;23;20077;-72
2022/09/20 00:10:56;;;;;;;6.10;1.77;;;;;;;;;;6157954;23;20034;-71
2022/09/20 00:13:22;;;;;;;6.78;1.60;;;;;;;;;;6158141;23;20035;-72
2022/09/20 00:15:48;;;;;;;4.20;1.40;;;;;;;;;;6157472;23;20093;-72
2022/09/20 00:18:15;;;;;;;5.25;1.02;;;;;;;;;;6157755;23;20033;-72
2022/09/20 00:20:48;;;;;;;7.45;1.70;;;;;;;;;;6157407;23;20088;-71
2022/09/20 00:23:14;;;;;;;5.70;1.48;;;;;;;;;;6158066;23;20030;-71
2022/09/20 00:25:41;;;;;;;8.73;1.85;;;;;;;;;;6157808;23;20377;-71
2022/09/20 00:28:08;;;;;;;3.35;1.35;;;;;;;;;;6156976;23;20084;-71
2022/09/20 00:30:34;;;;;;;4.35;1.98;;;;;;;;;;6158167;23;20088;-72
2022/09/20 00:33:01;;;;;;;6.18;1.73;;;;;;;;;;6158464;23;20037;-73
2022/09/20 00:35:28;;;;;;;13.55;1.85;;;;;;;;;;6158281;23;20034;-72
2022/09/20 00:37:54;;;;;;;8.98;1.52;;;;;;;;;;6157917;23;20104;-72
2022/09/20 00:40:22;;;;;;;4.82;1.70;;;;;;;;;;6157759;23;20026;-71
2022/09/20 00:42:48;;;;;;;3.60;1.27;;;;;;;;;;6157785;23;20026;-71
2022/09/20 00:45:22;;;;;;;8.02;1.55;;;;;;;;;;6157760;23;20089;-71
2022/09/20 00:47:52;;;;;;;7.35;1.38;;;;;;;;;;6156355;23;20093;-71
2022/09/20 00:50:21;;;;;;;6.45;1.73;;;;;;;;;;6158170;23;20037;-71
2022/09/20 00:52:50;;;;;;;5.53;1.35;;;;;;;;;;6157557;23;20053;-71
2022/09/20 00:55:17;;;;;;;5.13;1.25;;;;;;;;;;6156262;23;20025;-71
2022/09/20 00:57:44;;;;;;;5.18;1.60;;;;;;;;;;6157618;23;20089;-71
2022/09/20 01:00:11;;;;;;;5.55;1.25;;;;;;;;;;6157889;23;20867;-72
2022/09/20 01:02:40;;;;;;;5.70;1.50;;;;;;;;;;6155808;23;20030;-72
2022/09/20 01:05:08;;;;;;;3.78;1.23;;;;;;;;;;6157635;23;20061;-72
2022/09/20 01:07:34;;;;;;;5.75;1.38;;;;;;;;;;6158106;23;20408;-72
2022/09/20 01:10:01;;;;;;;9.50;1.83;;;;;;;;;;6157658;23;20029;-72
2022/09/20 01:12:29;;;;;;;4.13;0.90;;;;;;;;;;6157919;23;20463;-72
2022/09/20 01:14:56;;;;;;;6.95;1.30;;;;;;;;;;6157786;23;20360;-71
2022/09/20 01:17:24;;;;;;;5.68;1.20;;;;;;;;;;6157540;23;20357;-71
2022/09/20 01:19:57;;;;;;;7.22;1.60;;;;;;;;;;6157839;23;20061;-72
2022/09/20 01:22:42;;;;;;;4.25;1.40;;;;;;;;;;6157167;23;20026;-72
2022/09/20 01:25:16;;;;;;;8.73;1.42;;;;;;;;;;6157552;23;20055;-71
2022/09/20 01:27:44;;;;;;;4.35;1.27;;;;;;;;;;6157889;23;20479;-71
2022/09/20 01:30:13;;;;;;;4.65;1.20;;;;;;;;;;6156829;23;20060;-72
2022/09/20 01:32:58;;;;;;;4.78;1.50;;;;;;;;;;6156666;23;20044;-72
2022/09/20 01:35:27;;;;;;;4.35;1.50;;;;;;;;;;6157543;23;20081;-71
2022/09/20 01:38:12;;;;;;;7.05;1.45;;;;;;;;;;6156811;23;20089;-71
2022/09/20 01:40:46;;;;;;;6.95;1.38;;;;;;;;;;6157374;23;20468;-72
2022/09/20 01:43:17;;;;;;;4.38;1.30;;;;;;;;;;6157424;23;20129;-71
2022/09/20 01:45:46;;;;;;;7.05;1.30;;;;;;;;;;6157487;23;20030;-71
2022/09/20 01:48:32;;;;;;;3.25;1.10;;;;;;;;;;6157163;23;20026;-72
2022/09/20 01:51:17;;;;;;;5.27;1.37;;;;;;;;;;6157530;23;20034;-72
2022/09/20 01:53:49;;;;;;;7.30;1.58;;;;;;;;;;6157405;23;20030;-71
2022/09/20 01:56:15;;;;;;;6.53;1.42;;;;;;;;;;6157617;23;20065;-71
2022/09/20 01:59:00;;;;;;;8.07;1.38;;;;;;;;;;6156878;23;20085;-71
2022/09/20 02:01:52;;;;;;;7.00;1.83;;;;;;;;;;6154380;23;20057;-71
2022/09/20 02:04:21;;;;;;;5.18;1.48;;;;;;;;;;6155688;23;20037;-72
2022/09/20 02:07:06;;;;;;;6.63;0.80;;;;;;;;;;6159340;23;20034;-72
2022/09/20 02:09:45;;;;;;;6.05;1.23;;;;;;;;;;6158068;23;20034;-71
2022/09/20 02:12:21;;;;;;;4.32;1.13;;;;;;;;;;6158516;23;20461;-71
2022/09/20 02:14:50;;;;;;;10.13;1.98;;;;;;;;;;6159022;23;20033;-72
2022/09/20 02:17:19;;;;;;;8.35;1.50;;;;;;;;;;6158968;23;20467;-71
2022/09/20 02:19:52;;;;;;;5.00;1.08;;;;;;;;;;6159357;23;20093;-71
2022/09/20 02:22:18;;;;;;;9.98;1.42;;;;;;;;;;6157922;23;20120;-71
2022/09/20 02:24:48;;;;;;;3.78;1.25;;;;;;;;;;6159010;23;20029;-72
2022/09/20 02:27:20;;;;;;;3.55;1.20;;;;;;;;;;6158478;23;20464;-71
2022/09/20 02:29:52;;;;;;;7.40;1.73;;;;;;;;;;6158456;23;20036;-71
2022/09/20 02:32:34;;;;;;;4.57;1.02;;;;;;;;;;6157202;23;20034;-71
2022/09/20 02:35:06;;;;;;;4.53;1.50;;;;;;;;;;6156531;23;20037;-73
2022/09/20 02:37:51;;;;;;;3.38;1.33;;;;;;;;;;6158686;23;20460;-71
2022/09/20 02:40:17;;;;;;;5.68;1.10;;;;;;;;;;6157699;23;20033;-71
2022/09/20 02:42:47;;;;;;;5.93;1.38;;;;;;;;;;6159059;23;20108;-71
2022/09/20 02:45:16;;;;;;;7.78;1.58;;;;;;;;;;6158550;23;20460;-71
2022/09/20 02:47:43;;;;;;;6.65;2.65;;;;;;;;;;6158344;23;20034;-71
2022/09/20 02:50:18;;;;;;;6.40;1.40;;;;;;;;;;6157331;23;20030;-71
2022/09/20 02:52:45;;;;;;;;;;;;;;;;;;6158516;23;20029;-71
2022/09/20 02:55:20;;;;;;;4.95;0.90;;;;;;;;;;6157082;23;47189;-71
2022/09/20 02:58:06;;;;;;;6.65;1.45;;;;;;;;;;6157967;23;20072;-70
2022/09/20 03:00:39;;;;;;;2.72;1.23;;;;;;;;;;6158310;23;20033;-71
2022/09/20 03:03:24;;;;;;;4.85;1.35;;;;;;;;;;6158100;23;20523;-71
2022/09/20 03:05:56;;;;;;;5.28;1.08;;;;;;;;;;6158952;23;20495;-71
2022/09/20 03:08:33;;;;;;;6.93;1.88;;;;;;;;;;6157843;23;20030;-71
2022/09/20 03:11:10;;;;;;;6.55;1.58;;;;;;;;;;6158220;23;20026;-71
2022/09/20 03:13:56;;;;;;;7.72;1.50;;;;;;;;;;6157980;23;20089;-70
2022/09/20 03:16:40;;;;;;;2.13;1.20;;;;;;;;;;6157958;23;20033;-71
2022/09/20 03:19:10;;;;;;;5.32;1.20;;;;;;;;;;6157904;23;20025;-71
2022/09/20 03:21:42;;;;;;;5.10;1.70;;;;;;;;;;6158144;23;20471;-71
2022/09/20 03:24:12;;;;;;;3.17;1.33;;;;;;;;;;6157710;23;20034;-71
2022/09/20 03:26:57;;;;;;;5.35;1.67;;;;;;;;;;6157299;23;20440;-70
2022/09/20 03:29:23;;;;;;;6.13;1.45;;;;;;;;;;6158195;23;20030;-70
2022/09/20 03:32:03;;;;;;;7.80;2.95;;;;;;;;;;6156288;23;20074;-70
2022/09/20 03:34:39;;;;;;;4.32;1.67;;;;;;;;;;6157611;23;20037;-70
2022/09/20 03:37:08;;;;;;;3.25;1.73;;;;;;;;;;6157658;23;20424;-70
2022/09/20 03:39:44;;;;;;;2.53;1.42;;;;;;;;;;6157565;23;20021;-70
2022/09/20 03:42:16;;;;;;;4.60;2.05;;;;;;;;;;6157941;23;20030;-70
2022/09/20 03:45:07;;;;;;;9.68;2.00;;;;;;;;;;6157808;23;20037;-70
2022/09/20 03:47:52;;;;;;;5.60;1.90;;;;;;;;;;6139149;23;20037;-70
2022/09/20 03:50:21;;;;;;;6.40;1.80;;;;;;;;;;6158305;23;20061;-70
2022/09/20 03:52:50;;;;;;;7.95;2.63;;;;;;;;;;6157549;23;20030;-70
2022/09/20 03:55:20;;;;;;;5.10;1.88;;;;;;;;;;6157680;23;20499;-70
2022/09/20 03:57:55;;;;;;;4.13;1.40;;;;;;;;;;6157820;23;20037;-70
2022/09/20 04:00:40;;;;;;;4.68;2.80;;;;;;;;;;6157392;23;20037;-70
2022/09/20 04:03:19;;;;;;;9.18;1.88;;;;;;;;;;6156875;23;20101;-70
2022/09/20 04:05:59;;;;;;;4.32;1.60;;;;;;;;;;6156720;23;20084;-70
2022/09/20 04:08:37;;;;;;;4.72;1.63;;;;;;;;;;6158020;23;20090;-70
2022/09/20 04:11:10;;;;;;;5.20;1.45;;;;;;;;;;6158320;23;20033;-71
2022/09/20 04:13:38;;;;;;;4.80;2.67;;;;;;;;;;6158616;23;20058;-70
2022/09/20 04:16:12;;;;;;;12.18;2.88;;;;;;;;;;6161008;23;20089;-70
2022/09/20 04:18:55;;;;;;;4.78;1.55;;;;;;;;;;6156888;23;20034;-70
2022/09/20 04:21:42;;;;;;;6.53;1.65;;;;;;;;;;6157383;23;20428;-70
2022/09/20 04:24:11;;;;;;;10.30;2.22;;;;;;;;;;6156997;23;20029;-71
2022/09/20 04:26:40;;;;;;;5.90;2.85;;;;;;;;;;6157169;23;20029;-70
2022/09/20 04:29:25;;;;;;;6.63;2.58;;;;;;;;;;6157740;23;20029;-70
2022/09/20 04:31:57;;;;;;;5.53;1.90;;;;;;;;;;6156224;23;20480;-70
2022/09/20 04:36:27;;;;;;;7.60;1.77;;;;;;;;;;6157867;23;20085;-70
2022/09/20 04:37:21;;;;;;;5.85;1.73;;;;;;;;;;6158898;23;20077;-71
2022/09/20 04:39:55;;;;;;;5.47;2.67;;;;;;;;;;6158229;23;20030;-70
2022/09/20 04:42:43;;;;;;;10.90;2.10;;;;;;;;;;6158136;23;20060;-71
2022/09/20 04:45:16;;;;;;;9.25;2.00;;;;;;;;;;6142753;23;20029;-71
2022/09/20 04:48:04;;;;;;;7.90;2.10;;;;;;;;;;6158315;23;20089;-70
2022/09/20 04:50:49;;;;;;;4.70;2.60;;;;;;;;;;6158194;23;20448;-71
2022/09/20 04:53:37;;;;;;;5.30;2.10;;;;;;;;;;6158316;23;20030;-71
2022/09/20 04:56:18;;;;;;;6.45;2.95;;;;;;;;;;6157325;23;20955;-71
2022/09/20 04:58:48;;;;;;;5.68;2.42;;;;;;;;;;6157896;23;20082;-71
2022/09/20 05:01:24;;;;;;;5.38;2.00;;;;;;;;;;6156835;23;20034;-71
2022/09/20 05:03:58;;;;;;;7.80;2.47;;;;;;;;;;6156889;23;20026;-70
2022/09/20 05:06:37;;;;;;;5.00;2.33;;;;;;;;;;6157774;23;20026;-71
2022/09/20 05:09:13;;;;;;;6.28;2.08;;;;;;;;;;6157537;23;20030;-70
2022/09/20 05:11:42;;;;;;;;;;;;;;;;;;6157683;23;20030;-70
2022/09/20 05:14:27;;;;;;;5.25;1.90;;;;;;;;;;6156565;23;45712;-71
2022/09/20 05:16:56;;;;;;;6.65;2.63;;;;;;;;;;6157319;23;20475;-71
2022/09/20 05:19:42;;;;;;;5.55;2.25;;;;;;;;;;6157233;23;20036;-70
2022/09/20 05:22:08;;;;;;;3.22;2.20;;;;;;;;;;6157302;23;20026;-70
2022/09/20 05:24:45;;;;;;;14.85;2.95;;;;;;;;;;6157689;23;20030;-70
2022/09/20 05:27:11;;;;;;;6.70;2.72;;;;;;;;;;6157256;23;20086;-71
2022/09/20 05:29:43;;;;;;;8.07;2.58;;;;;;;;;;6156882;23;20033;-70
2022/09/20 05:32:26;;;;;;;6.35;2.70;;;;;;;;;;6156165;23;20077;-70
2022/09/20 05:34:59;;;;;;;8.95;3.00;;;;;;;;;;6157355;23;20476;-70
2022/09/20 05:37:46;;;;;;;7.45;2.38;;;;;;;;;;6156955;23;20507;-71
2022/09/20 05:40:16;;;;;;;5.70;2.22;;;;;;;;;;6157757;23;20026;-70
2022/09/20 05:42:43;;;;;;;8.38;2.00;;;;;;;;;;6158216;23;20030;-70
2022/09/20 05:45:22;;;;;;;6.50;2.63;;;;;;;;;;6158906;23;20033;-71
2022/09/20 05:47:55;;;;;;;14.82;3.78;;;;;;;;;;6157892;23;20508;-71
2022/09/20 05:50:38;;;;;;;8.38;2.50;;;;;;;;;;6157898;23;20086;-71
2022/09/20 05:53:18;;;;;;;6.28;2.42;;;;;;;;;;6154518;23;20030;-72
2022/09/20 05:55:56;;;;;;;4.63;2.03;;;;;;;;;;6156723;23;20034;-71
2022/09/20 05:58:33;;;;;;;4.50;1.77;;;;;;;;;;6157852;23;20030;-71
2022/09/20 06:01:17;;;;;;;8.00;3.00;;;;;;;;;;6158600;23;20030;-71
2022/09/20 06:03:47;;;;;;;6.38;2.33;;;;;;;;;;6156846;23;20739;-70
2022/09/20 06:06:21;;;;;;;6.43;2.42;;;;;;;;;;6157962;23;20030;-71
2022/09/20 06:08:50;;;;;;;5.90;2.35;;;;;;;;;;6158200;23;20030;-71
2022/09/20 06:11:35;;;;;;;4.85;1.95;;;;;;;;;;6158641;23;20030;-71
2022/09/20 06:14:08;;;;;;;6.18;2.05;;;;;;;;;;6158721;23;20412;-72
2022/09/20 06:16:43;;;;;;;6.07;2.35;;;;;;;;;;6158137;23;20032;-72
2022/09/20 06:19:16;;;;;;;7.45;2.95;;;;;;;;;;6158892;23;20034;-72
2022/09/20 06:21:58;;;;;;;10.23;3.70;;;;;;;;;;6157904;23;20025;-71
2022/09/20 06:24:35;;;;;;;9.82;2.58;;;;;;;;;;6157612;23;20026;-72
2022/09/20 06:27:07;;;;;;;7.15;2.70;;;;;;;;;;6158290;23;20034;-72
2022/09/20 06:29:35;;;;;;;3.80;2.47;;;;;;;;;;6157872;23;20049;-71
2022/09/20 06:32:04;;;;;;;8.45;3.25;;;;;;;;;;6156969;23;20455;-71
2022/09/20 06:34:30;;;;;;;8.35;3.20;;;;;;;;;;6158185;23;20030;-70
2022/09/20 06:42:36;;;;;;;10.73;2.67;;;;;;;;;;6158134;23;20041;-71
2022/09/20 06:45:03;;;;;;;8.20;2.05;;;;;;;;;;6157932;23;20812;-72
2022/09/20 06:47:29;;;;;;;9.02;3.10;;;;;;;;;;6158399;23;20456;-71
2022/09/20 06:49:57;;;;;;;8.48;2.60;;;;;;;;;;6157727;23;20401;-71
2022/09/20 06:52:23;;;;;;;8.23;2.92;;;;;;;;;;6157532;23;20026;-71
2022/09/20 06:54:52;;;;;;;8.57;2.60;;;;;;;;;;6157446;23;20026;-71
2022/09/20 06:57:22;;;;;;;9.55;2.67;;;;;;;;;;6157580;23;20030;-72
2022/09/20 06:59:48;;;;;;;5.38;2.35;;;;;;;;;;6158078;23;20030;-70
2022/09/20 07:02:14;;;;;;;13.07;3.10;;;;;;;;;;6157895;23;20058;-72
2022/09/20 07:04:41;;;;;;;7.07;2.55;;;;;;;;;;6158140;23;20469;-72
2022/09/20 07:07:07;;;;;;;9.95;3.22;;;;;;;;;;6156721;23;20066;-71
2022/09/20 07:09:35;;;;;;;5.70;2.80;;;;;;;;;;6157580;23;20116;-70
2022/09/20 07:12:01;;;;;;;4.90;2.38;;;;;;;;;;6158552;23;20029;-71
2022/09/20 07:14:27;;;;;;;5.85;2.67;;;;;;;;;;6158306;23;20030;-70
2022/09/20 07:16:53;;;;;;;10.48;3.50;;;;;;;;;;6158808;23;20495;-71
2022/09/20 07:19:22;;;;;;;15.98;3.25;;;;;;;;;;6157619;23;20364;-72
2022/09/20 07:21:48;;;;;;;5.25;2.40;;;;;;;;;;6157867;23;20029;-70
2022/09/20 07:24:14;;;;;;;7.50;2.40;;;;;;;;;;6156779;23;20029;-72
2022/09/20 07:26:54;;;;;;;6.20;2.38;;;;;;;;;;6158769;23;20085;-72
2022/09/20 07:29:20;;;;;;;7.15;2.47;;;;;;;;;;6158530;23;20512;-73
2022/09/20 07:31:46;;;;;;;9.68;2.83;;;;;;;;;;6156361;23;20538;-73
2022/09/20 07:34:13;;;;;;;9.02;2.40;;;;;;;;;;6157831;23;20036;-73
2022/09/20 07:36:39;;;;;;;5.50;2.60;;;;;;;;;;6158363;23;20030;-73
2022/09/20 07:39:05;;;;;;;7.45;2.85;;;;;;;;;;6156681;23;20034;-72
2022/09/20 07:41:31;;;;;;;5.85;2.33;;;;;;;;;;6158116;23;20077;-71
2022/09/20 07:44:19;;;;;;;8.10;2.40;;;;;;;;;;6157537;23;20093;-72
2022/09/20 07:46:44;;;;;;;5.97;2.78;;;;;;;;;;6157771;23;20377;-73
2022/09/20 07:49:11;;;;;;;9.68;2.40;;;;;;;;;;6155993;23;20037;-71
2022/09/20 07:51:37;;;;;;;10.07;2.72;;;;;;;;;;6157493;23;20026;-71
2022/09/20 07:54:03;;;;;;;8.38;4.32;;;;;;;;;;6157222;23;20030;-72
2022/09/20 07:56:29;;;;;;;5.10;3.20;;;;;;;;;;6158405;23;20030;-71
2022/09/20 07:58:56;;;;;;;4.32;1.48;;;;;;;;;;6157649;23;20077;-72
2022/09/20 08:01:22;;;;;;;3.58;1.40;;;;;;;;;;6156391;23;20033;-70
2022/09/20 08:03:48;;;;;;;3.63;1.25;;;;;;;;;;6157494;23;20026;-70
2022/09/20 08:06:17;;;;;;;4.25;0.90;;;;;;;;;;6157723;23;20077;-74
2022/09/20 08:08:44;;;;;;;4.60;0.90;;;;;;;;;;6157253;23;20026;-70
2022/09/20 08:11:12;;;;;;;1.85;1.20;;;;;;;;;;6156290;23;20026;-71
2022/09/20 08:13:40;;;;;;;5.22;1.30;;;;;;;;;;6157742;23;20037;-70
2022/09/20 08:16:27;;;;;;;2.08;1.13;;;;;;;;;;6157971;23;20527;-70
2022/09/20 08:18:56;;;;;;;2.15;1.00;;;;;;;;;;6158440;23;20085;-70
2022/09/20 08:21:24;;;;;;;5.43;1.70;;;;;;;;;;6158844;23;20037;-70
2022/09/20 08:23:50;;;;;;;8.13;1.60;;;;;;;;;;6157509;23;20034;-72
2022/09/20 08:26:20;;;;;;;3.25;1.38;;;;;;;;;;6158199;23;20093;-72
2022/09/20 08:28:48;;;;;;;4.43;1.30;;;;;;;;;;6157948;23;20127;-73
2022/09/20 08:31:18;;;;;;;5.25;1.35;;;;;;;;;;6157169;23;20029;-71
2022/09/20 08:33:45;;;;;;;4.45;1.50;;;;;;;;;;6158072;23;20037;-70
2022/09/20 08:36:14;;;;;;;7.35;2.90;;;;;;;;;;6157941;23;20846;-70
2022/09/20 08:38:41;;;;;;;4.80;1.52;;;;;;;;;;6157045;23;20026;-70
2022/09/20 08:41:30;;;;;;;10.00;1.67;;;;;;;;;;6157525;23;20085;-71
2022/09/20 08:44:04;;;;;;;3.13;1.17;;;;;;;;;;6158713;23;20048;-70
2022/09/20 08:46:34;;;;;;;2.92;1.42;;;;;;;;;;6158432;23;21022;-71
2022/09/20 08:49:03;;;;;;;3.47;1.27;;;;;;;;;;6157680;23;20025;-69
2022/09/20 08:51:32;;;;;;;4.20;1.20;;;;;;;;;;6157868;23;20030;-70
2022/09/20 08:53:59;;;;;;;2.60;1.17;;;;;;;;;;6157081;23;20472;-70
2022/09/20 08:56:28;;;;;;;5.72;1.30;;;;;;;;;;6156858;23;20030;-69
2022/09/20 08:58:59;;;;;;;4.53;1.17;;;;;;;;;;6157800;23;20030;-71
2022/09/20 09:01:25;;;;;;;8.07;2.22;;;;;;;;;;6156463;23;20029;-71
2022/09/20 09:03:56;;;;;;;8.55;1.13;;;;;;;;;;6157264;23;20435;-70
2022/09/20 09:06:23;;;;;;;2.60;1.15;;;;;;;;;;6158395;23;20065;-70
2022/09/20 09:08:52;;;;;;;2.75;1.02;;;;;;;;;;6156904;23;20037;-70
2022/09/20 09:11:19;;;;;;;5.32;0.95;;;;;;;;;;6158104;23;20033;-70
2022/09/20 09:14:03;;;;;;;4.35;1.38;;;;;;;;;;6157603;23;20034;-70
2022/09/20 09:16:31;;;;;;;2.40;1.10;;;;;;;;;;6157678;23;20030;-70
2022/09/20 09:19:20;;;;;;;1.60;0.95;;;;;;;;;;6157743;23;20030;-69
2022/09/20 09:21:46;;;;;;;3.67;1.33;;;;;;;;;;6156766;23;20389;-69
2022/09/20 09:24:16;;;;;;;4.22;1.00;;;;;;;;;;6156808;23;20400;-69
2022/09/20 09:26:43;;;;;;;2.72;0.82;;;;;;;;;;6157207;23;20025;-69
2022/09/20 09:29:14;;;;;;;3.05;0.85;;;;;;;;;;6157804;23;20030;-69
2022/09/20 09:31:42;;;;;;;5.65;0.95;;;;;;;;;;6155899;23;20081;-70
2022/09/20 09:34:37;;;;;;;1.58;0.57;;;;;;;;;;6156950;23;20104;-70
2022/09/20 09:37:03;;;;;;;3.67;0.70;;;;;;;;;;6154246;23;20033;-71
2022/09/20 09:39:39;;;;;;;5.57;1.50;;;;;;;;;;6157309;23;20037;-70
2022/09/20 09:42:05;;;;;;;;;;;;;;;;;;6157918;23;20522;-72
2022/09/20 09:44:32;;;;;;;2.05;0.85;;;;;;;;;;6156502;23;44126;-70
2022/09/20 09:46:59;;;;;;;3.25;0.75;;;;;;;;;;6157748;23;20057;-70
2022/09/20 09:49:26;;;;;;;5.70;0.75;;;;;;;;;;6157801;23;20085;-70
2022/09/20 09:52:04;;;;;;;2.72;0.65;;;;;;;;;;6156850;23;20048;-69
2022/09/20 09:54:36;;;;;;;2.17;0.57;;;;;;;;;;6156885;23;20037;-69
2022/09/20 09:57:09;;;;;;;4.65;0.75;;;;;;;;;;6156538;23;20026;-69
2022/09/20 09:59:56;;;;;;;1.30;0.60;;;;;;;;;;6157064;23;20088;-69
2022/09/20 10:02:41;;;;;;;2.25;0.73;;;;;;;;;;6155832;23;20085;-69
2022/09/20 10:05:27;;;;;;;2.30;0.70;;;;;;;;;;6156780;23;20025;-69
2022/09/20 10:08:00;;;;;;;4.32;0.70;;;;;;;;;;6139931;23;20036;-70
2022/09/20 10:10:44;;;;;;;2.72;0.90;;;;;;;;;;6156793;23;20520;-70
2022/09/20 10:13:17;;;;;;;3.45;0.80;;;;;;;;;;6157635;23;20539;-72
2022/09/20 10:15:52;;;;;;;2.85;0.55;;;;;;;;;;6159666;23;20958;-69
2022/09/20 10:18:24;;;;;;;5.43;0.80;;;;;;;;;;6156975;23;20026;-70
2022/09/20 10:20:54;;;;;;;4.43;0.80;;;;;;;;;;6156530;23;20253;-71
2022/09/20 10:23:40;;;;;;;3.15;0.90;;;;;;;;;;6156191;23;20030;-71
2022/09/20 10:26:35;;;;;;;8.95;1.02;;;;;;;;;;6158204;23;20515;-71
2022/09/20 10:29:14;;;;;;;4.55;0.80;;;;;;;;;;6158937;23;20026;-71
2022/09/20 10:31:56;;;;;;;7.20;0.82;;;;;;;;;;6158938;23;20089;-71
2022/09/20 10:34:42;;;;;;;2.15;0.70;;;;;;;;;;6156896;23;20042;-71
2022/09/20 10:37:21;;;;;;;1.95;0.60;;;;;;;;;;6140514;23;20490;-72
2022/09/20 10:39:52;;;;;;;0.93;0.70;;;;;;;;;;6158377;23;20034;-72
2022/09/20 10:45:25;;;;;;;7.50;0.98;;;;;;;;;;6155502;23;20136;-72
2022/09/20 10:48:16;;;;;;;3.10;0.88;;;;;;;;;;6156417;23;20022;-71
2022/09/20 10:51:03;;;;;;;5.55;0.68;;;;;;;;;;6157411;23;20034;-71
2022/09/20 10:53:42;;;;;;;7.07;1.45;;;;;;;;;;6157534;23;20045;-72
2022/09/20 10:56:18;;;;;;;4.03;0.82;;;;;;;;;;6158024;23;20026;-70
2022/09/20 10:58:45;;;;;;;;;;;;;;;;;;6157135;23;20038;-71
2022/09/20 11:01:30;;;;;;;4.10;0.93;;;;;;;;;;6155166;23;47210;-71
2022/09/20 11:04:05;;;;;;;5.90;0.82;;;;;;;;;;6158279;23;20080;-72
2022/09/20 11:06:50;;;;;;;2.72;0.60;;;;;;;;;;6158660;23;20034;-72
2022/09/20 11:09:20;;;;;;;9.10;0.80;;;;;;;;;;6157534;23;20033;-72
2022/09/20 11:11:49;;;;;;;26.23;3.85;;;;;;;;;;6158321;23;20309;-72
2022/09/20 11:14:28;;;;;;;2.38;0.93;;;;;;;;;;6156191;23;20034;-70
2022/09/20 11:16:59;;;;;;;7.20;1.58;;;;;;;;;;6157718;23;20034;-72
2022/09/20 11:19:56;;;;;;;4.25;1.17;;;;;;;;;;6157874;23;20460;-72
2022/09/20 11:22:25;;;;;;;3.40;0.75;;;;;;;;;;6138792;23;20034;-72
2022/09/20 11:25:10;;;;;;;5.80;1.52;;;;;;;;;;6158474;23;20030;-72
2022/09/20 11:27:57;;;;;;;5.18;0.90;;;;;;;;;;6158804;23;20038;-73
2022/09/20 11:30:23;;;;;;;6.70;0.63;;;;;;;;;;6158934;23;20088;-74
2022/09/20 11:32:55;;;;;;;2.85;0.80;;;;;;;;;;6159019;23;20026;-74
2022/09/20 11:35:40;;;;;;;2.42;0.70;;;;;;;;;;6158225;23;20034;-74
2022/09/20 11:38:13;;;;;;;3.13;0.80;;;;;;;;;;6157733;23;20030;-74
2022/09/20 11:40:42;;;;;;;1.13;0.57;;;;;;;;;;6158737;23;20085;-74
2022/09/20 11:43:09;;;;;;;1.65;0.50;;;;;;;;;;6158937;23;20030;-74
2022/09/20 11:45:41;;;;;;;4.13;0.73;;;;;;;;;;6159055;23;20034;-74
2022/09/20 11:48:14;;;;;;;6.18;1.17;;;;;;;;;;6158958;23;20041;-70
2022/09/20 11:50:59;;;;;;;3.83;0.73;;;;;;;;;;6158308;23;20081;-70
2022/09/20 11:53:28;;;;;;;2.83;0.70;;;;;;;;;;6158192;23;20136;-71
2022/09/20 11:56:04;;;;;;;7.72;1.10;;;;;;;;;;6157884;23;20333;-72
2022/09/20 11:58:42;;;;;;;7.03;0.75;;;;;;;;;;6155786;23;20029;-72
2022/09/20 12:01:11;;;;;;;4.00;0.70;;;;;;;;;;6156039;23;20443;-72
2022/09/20 12:03:39;;;;;;;6.95;1.60;;;;;;;;;;6158700;23;20030;-71
2022/09/20 12:06:07;;;;;;;3.22;1.05;;;;;;;;;;6158521;23;20904;-72
2022/09/20 12:08:35;;;;;;;2.72;0.70;;;;;;;;;;6158747;23;20121;-71
2022/09/20 12:11:03;;;;;;;3.70;0.63;;;;;;;;;;6157789;23;20030;-73
2022/09/20 12:13:32;;;;;;;11.75;1.63;;;;;;;;;;6158183;23;20033;-72
2022/09/20 12:16:02;;;;;;;7.07;0.70;;;;;;;;;;6157200;23;20090;-73
2022/09/20 12:18:34;;;;;;;3.03;0.90;;;;;;;;;;6158318;23;20034;-72
2022/09/20 12:21:03;;;;;;;3.13;0.60;;;;;;;;;;6158297;23;20089;-71
2022/09/20 12:23:36;;;;;;;3.65;0.90;;;;;;;;;;6158004;23;20360;-71
2022/09/20 12:26:19;;;;;;;2.53;1.08;;;;;;;;;;6157299;23;20030;-71
2022/09/20 12:28:48;;;;;;;3.35;1.13;;;;;;;;;;6158030;23;20026;-72
2022/09/20 12:31:21;;;;;;;5.40;0.88;;;;;;;;;;6155803;23;20025;-73
2022/09/20 12:33:53;;;;;;;2.38;0.80;;;;;;;;;;6156701;23;20032;-71
2022/09/20 12:36:19;;;;;;;5.80;0.73;;;;;;;;;;6157542;23;20499;-70
2022/09/20 12:38:47;;;;;;;5.32;1.73;;;;;;;;;;6157122;23;20471;-70
2022/09/20 12:41:15;;;;;;;5.50;0.90;;;;;;;;;;6157493;23;20030;-72
2022/09/20 12:43:56;;;;;;;5.50;0.70;;;;;;;;;;6158223;23;20056;-72
2022/09/20 12:46:44;;;;;;;2.33;0.70;;;;;;;;;;6157618;23;20033;-72
2022/09/20 12:52:49;;;;;;;3.63;0.90;;;;;;;;;;6156266;23;20022;-72
2022/09/20 12:54:49;;;;;;;3.28;1.25;;;;;;;;;;6158671;23;20047;-71
2022/09/20 12:57:17;;;;;;;4.80;1.00;;;;;;;;;;6157941;23;20026;-71
2022/09/20 12:59:54;;;;;;;6.38;1.30;;;;;;;;;;6157906;23;20973;-70
2022/09/20 13:02:39;;;;;;;8.38;1.08;;;;;;;;;;6156306;23;20085;-73
2022/09/20 13:05:37;;;;;;;4.15;0.82;;;;;;;;;;6158048;23;20037;-72
2022/09/20 13:08:23;;;;;;;2.95;0.82;;;;;;;;;;6138539;23;20033;-73
2022/09/20 13:11:06;;;;;;;4.68;0.82;;;;;;;;;;6158550;23;20037;-72
2022/09/20 13:13:36;;;;;;;3.33;0.70;;;;;;;;;;6158176;23;20034;-72
2022/09/20 13:16:04;;;;;;;1.77;0.70;;;;;;;;;;6157835;23;20033;-72
2022/09/20 13:18:33;;;;;;;3.80;1.15;;;;;;;;;;6156634;23;20522;-74
2022/09/20 13:21:04;;;;;;;3.80;0.93;;;;;;;;;;6158343;23;20030;-70
2022/09/20 13:23:44;;;;;;;3.42;1.00;;;;;;;;;;6156223;23;20033;-70
2022/09/20 13:26:12;;;;;;;2.97;0.75;;;;;;;;;;6156307;23;20085;-71
2022/09/20 13:28:43;;;;;;;5.07;1.08;;;;;;;;;;6155647;23;20029;-71
2022/09/20 13:31:23;;;;;;;4.35;0.82;;;;;;;;;;6156249;23;20033;-69
2022/09/20 13:33:50;;;;;;;3.63;0.70;;;;;;;;;;6157685;23;20033;-70
2022/09/20 13:36:28;;;;;;;8.50;1.33;;;;;;;;;;6156389;23;20030;-71
2022/09/20 13:38:55;;;;;;;8.05;1.20;;;;;;;;;;6157511;23;20034;-70
2022/09/20 13:41:26;;;;;;;7.47;1.90;;;;;;;;;;6157788;23;20026;-70
2022/09/20 13:43:52;;;;;;;3.65;0.82;;;;;;;;;;6157423;23;20034;-71
2022/09/20 13:46:23;;;;;;;3.05;0.68;;;;;;;;;;6155113;23;20030;-71
2022/09/20 13:48:58;;;;;;;2.42;0.82;;;;;;;;;;6156657;23;20081;-71
2022/09/20 13:51:25;;;;;;;10.65;1.05;;;;;;;;;;6157253;23;20033;-71
2022/09/20 13:53:52;;;;;;;1.33;0.60;;;;;;;;;;6157377;23;20037;-72
2022/09/20 13:56:20;;;;;;;5.60;0.82;;;;;;;;;;6157356;23;20026;-72
2022/09/20 13:58:47;;;;;;;5.95;1.33;;;;;;;;;;6157601;23;20030;-70
2022/09/20 14:01:29;;;;;;;4.90;0.85;;;;;;;;;;6151675;23;20037;-68
2022/09/20 14:04:15;;;;;;;1.95;0.70;;;;;;;;;;6159122;23;20026;-70
2022/09/20 14:06:44;;;;;;;2.08;0.80;;;;;;;;;;6158827;23;20085;-69
2022/09/20 14:09:38;;;;;;;5.88;0.70;;;;;;;;;;6158876;23;20026;-71
2022/09/20 14:12:04;;;;;;;3.50;0.98;;;;;;;;;;6155016;23;20520;-72
2022/09/20 14:14:32;;;;;;;4.82;1.02;;;;;;;;;;6159343;23;20104;-72
2022/09/20 14:16:59;;;;;;;5.45;2.50;;;;;;;;;;6158665;23;20136;-72
2022/09/20 14:19:39;;;;;;;1.75;0.50;;;;;;;;;;6158833;23;20081;-71
2022/09/20 14:22:07;;;;;;;3.72;0.90;;;;;;;;;;6156574;23;20088;-72
2022/09/20 14:24:34;;;;;;;2.67;0.85;;;;;;;;;;6158522;23;20026;-73
2022/09/20 14:27:02;;;;;;;1.17;0.50;;;;;;;;;;6158425;23;20137;-73
2022/09/20 14:29:37;;;;;;;3.42;0.75;;;;;;;;;;6158450;23;20058;-74
2022/09/20 14:32:05;;;;;;;3.90;0.95;;;;;;;;;;6158391;23;20081;-73
2022/09/20 14:34:38;;;;;;;5.60;1.00;;;;;;;;;;6158161;23;20033;-70
2022/09/20 14:37:08;;;;;;;2.22;0.70;;;;;;;;;;6158436;23;20026;-70
2022/09/20 14:39:42;;;;;;;6.80;0.98;;;;;;;;;;6158136;23;20424;-69
2022/09/20 14:42:28;;;;;;;4.85;1.13;;;;;;;;;;6159403;23;20036;-69
2022/09/20 14:44:54;;;;;;;4.50;0.88;;;;;;;;;;6157966;23;20026;-70
2022/09/20 14:47:36;;;;;;;1.83;0.77;;;;;;;;;;6158190;23;20412;-72
2022/09/20 14:50:03;;;;;;;3.63;0.90;;;;;;;;;;6158700;23;20033;-71
2022/09/20 14:52:33;;;;;;;9.30;2.33;;;;;;;;;;6158019;23;20077;-71
2022/09/20 14:55:09;;;;;;;5.63;0.90;;;;;;;;;;6157757;23;20041;-70
2022/09/20 14:57:37;;;;;;;4.78;1.05;;;;;;;;;;6158803;23;20064;-71
2022/09/20 15:00:14;;;;;;;5.82;0.82;;;;;;;;;;6157312;23;20105;-70
2022/09/20 15:02:41;;;;;;;6.75;0.95;;;;;;;;;;6156654;23;20033;-71
2022/09/20 15:05:15;;;;;;;5.07;0.88;;;;;;;;;;6157514;23;20081;-69
2022/09/20 15:07:42;;;;;;;3.03;0.80;;;;;;;;;;6158887;23;20077;-70
2022/09/20 15:10:11;;;;;;;9.52;1.48;;;;;;;;;;6158886;23;20073;-70
2022/09/20 15:12:38;;;;;;;3.22;1.00;;;;;;;;;;6157805;23;20029;-68
2022/09/20 15:15:04;;;;;;;4.45;0.90;;;;;;;;;;6157422;23;20030;-70
2022/09/20 15:17:30;;;;;;;6.88;1.05;;;;;;;;;;6158292;23;20033;-69
2022/09/20 15:19:57;;;;;;;7.05;0.80;;;;;;;;;;6157895;23;20026;-69
2022/09/20 15:22:25;;;;;;;1.38;0.70;;;;;;;;;;6158087;23;20040;-70
2022/09/20 15:24:51;;;;;;;4.25;0.80;;;;;;;;;;6158886;23;20037;-69
2022/09/20 15:27:17;;;;;;;4.72;0.90;;;;;;;;;;6158489;23;20957;-70
2022/09/20 15:29:43;;;;;;;1.50;0.75;;;;;;;;;;6158585;23;20042;-70